• Join FlightAware (Why Join?)
  • Login
  • US Flag 
10:41AM EST


 

Airport Tracker/Info


-or-


 

Live Flight TrackerFlight Track Log ✈ CTL78 ✈ 24-May-2013 ✈ KPTK - KMBS

Flight Track Log - Related Links

Times and Time Zones

All times are in EDT time to prevent confusion due to time zone crossing. See the CTL78 flight status page for this flight to view local times or setup timezone preferences in your user account.

Time Position Orientation Groundspeed Altitude Reporting Facility
EDT Latitude Longitude Course Direction KTS MPH feet Rate Location/Type
03:55PM 42.6622 -83.4492 268° West 121 139 1,600  Level Cleveland Center
03:55PM 42.6614 -83.4772 268° West 132 152 2,100 968 Climbing Cleveland Center
03:57PM 42.6913 -83.4451 38° Northeast  Level FlightAware Approximate
04:04PM 42.9244 -83.3935 321° Northwest  Level FlightAware Approximate
04:05PM 42.9518 -83.4236 321° Northwest  Level FlightAware Approximate
04:06PM 42.9792 -83.4538 321° Northwest  Level FlightAware Approximate
04:07PM 43.0066 -83.4840 321° Northwest  Level FlightAware Approximate
04:08PM 43.0340 -83.5142 321° Northwest  Level FlightAware Approximate
04:09PM 43.0614 -83.5444 321° Northwest  Level FlightAware Approximate
04:10PM 43.0887 -83.5747 321° Northwest  Level FlightAware Approximate
04:11PM 43.1161 -83.6050 321° Northwest  Level FlightAware Approximate
04:12PM 43.1435 -83.6353 321° Northwest  Level FlightAware Approximate
04:13PM 43.1708 -83.6657 321° Northwest  Level FlightAware Approximate
04:14PM 43.1981 -83.6961 321° Northwest  Level FlightAware Approximate
04:15PM 43.2251 -83.7270 318° Northwest  Level FlightAware Approximate
04:16PM 43.2514 -83.7590 318° Northwest  Level FlightAware Approximate
04:17PM 43.2777 -83.7912 318° Northwest  Level FlightAware Approximate
04:18PM 43.3040 -83.8233 318° Northwest  Level FlightAware Approximate
04:19PM 43.3303 -83.8554 318° Northwest  Level FlightAware Approximate
04:20PM 43.3566 -83.8876 318° Northwest  Level FlightAware Approximate
04:21PM 43.3842 -83.9175 324° Northwest  Level FlightAware Approximate
04:22PM 43.4127 -83.9459 324° Northwest  Level FlightAware Approximate
04:23PM 43.4411 -83.9744 324° Northwest  Level FlightAware Approximate
04:24PM 43.4696 -84.0029 324° Northwest  Level FlightAware Approximate
04:25PM 43.4980 -84.0314 324° Northwest  Level FlightAware Approximate
04:26PM 43.5167 -84.0667 305° West  Level FlightAware Approximate